sensor_id;sensor_type;location;lat;lon;timestamp;P1;durP1;ratioP1;P2;durP2;ratioP2
80123;SDS011;69433;48.642;9.142;2024-02-16T00:00:22;53.85;;;34.95;;
80123;SDS011;69433;48.642;9.142;2024-02-16T00:02:49;54.60;;;34.03;;
80123;SDS011;69433;48.642;9.142;2024-02-16T00:05:15;48.78;;;32.42;;
80123;SDS011;69433;48.642;9.142;2024-02-16T00:07:47;52.72;;;33.80;;
80123;SDS011;69433;48.642;9.142;2024-02-16T00:10:13;53.33;;;33.22;;
80123;SDS011;69433;48.642;9.142;2024-02-16T00:12:38;54.22;;;32.38;;
80123;SDS011;69433;48.642;9.142;2024-02-16T00:15:05;50.55;;;33.95;;
80123;SDS011;69433;48.642;9.142;2024-02-16T00:17:32;50.92;;;32.83;;
80123;SDS011;69433;48.642;9.142;2024-02-16T00:19:58;49.05;;;32.92;;
80123;SDS011;69433;48.642;9.142;2024-02-16T00:22:31;50.42;;;32.45;;
80123;SDS011;69433;48.642;9.142;2024-02-16T00:24:56;51.15;;;32.75;;
80123;SDS011;69433;48.642;9.142;2024-02-16T00:27:22;51.45;;;32.55;;
80123;SDS011;69433;48.642;9.142;2024-02-16T00:29:47;47.97;;;30.92;;
80123;SDS011;69433;48.642;9.142;2024-02-16T00:32:20;49.22;;;31.27;;
80123;SDS011;69433;48.642;9.142;2024-02-16T00:34:51;48.05;;;30.73;;
80123;SDS011;69433;48.642;9.142;2024-02-16T00:37:20;46.53;;;30.13;;
80123;SDS011;69433;48.642;9.142;2024-02-16T00:39:52;46.47;;;30.65;;
80123;SDS011;69433;48.642;9.142;2024-02-16T00:42:19;48.08;;;30.63;;
80123;SDS011;69433;48.642;9.142;2024-02-16T00:44:46;47.38;;;31.23;;
80123;SDS011;69433;48.642;9.142;2024-02-16T00:47:19;48.50;;;30.90;;
80123;SDS011;69433;48.642;9.142;2024-02-16T00:49:45;47.22;;;30.65;;
80123;SDS011;69433;48.642;9.142;2024-02-16T00:52:19;47.00;;;29.92;;
80123;SDS011;69433;48.642;9.142;2024-02-16T00:57:16;47.13;;;29.65;;
80123;SDS011;69433;48.642;9.142;2024-02-16T00:59:43;46.88;;;30.65;;
80123;SDS011;69433;48.642;9.142;2024-02-16T01:02:08;46.60;;;29.40;;
80123;SDS011;69433;48.642;9.142;2024-02-16T01:04:35;44.65;;;28.90;;
80123;SDS011;69433;48.642;9.142;2024-02-16T01:07:03;44.03;;;28.88;;
80123;SDS011;69433;48.642;9.142;2024-02-16T01:09:34;44.13;;;28.30;;
80123;SDS011;69433;48.642;9.142;2024-02-16T01:11:59;45.53;;;29.30;;
80123;SDS011;69433;48.642;9.142;2024-02-16T01:14:24;42.95;;;28.25;;
80123;SDS011;69433;48.642;9.142;2024-02-16T01:16:51;42.97;;;28.08;;
80123;SDS011;69433;48.642;9.142;2024-02-16T01:19:16;44.92;;;29.23;;
80123;SDS011;69433;48.642;9.142;2024-02-16T01:21:42;41.58;;;27.58;;
80123;SDS011;69433;48.642;9.142;2024-02-16T01:24:08;41.45;;;28.15;;
80123;SDS011;69433;48.642;9.142;2024-02-16T01:26:34;45.25;;;28.58;;
80123;SDS011;69433;48.642;9.142;2024-02-16T01:28:59;41.72;;;27.20;;
80123;SDS011;69433;48.642;9.142;2024-02-16T01:31:25;40.92;;;26.17;;
80123;SDS011;69433;48.642;9.142;2024-02-16T01:33:51;40.65;;;25.77;;
80123;SDS011;69433;48.642;9.142;2024-02-16T01:36:18;40.67;;;25.70;;
80123;SDS011;69433;48.642;9.142;2024-02-16T01:38:44;41.67;;;26.95;;
80123;SDS011;69433;48.642;9.142;2024-02-16T01:41:10;41.10;;;25.83;;
80123;SDS011;69433;48.642;9.142;2024-02-16T01:43:40;42.13;;;27.55;;
80123;SDS011;69433;48.642;9.142;2024-02-16T01:46:06;43.13;;;27.77;;
80123;SDS011;69433;48.642;9.142;2024-02-16T01:48:32;36.65;;;25.13;;
80123;SDS011;69433;48.642;9.142;2024-02-16T01:50:59;38.47;;;25.73;;
80123;SDS011;69433;48.642;9.142;2024-02-16T01:56:04;41.17;;;26.08;;
80123;SDS011;69433;48.642;9.142;2024-02-16T01:58:30;38.47;;;25.20;;
80123;SDS011;69433;48.642;9.142;2024-02-16T02:00:55;36.97;;;24.92;;
80123;SDS011;69433;48.642;9.142;2024-02-16T02:03:20;37.85;;;25.42;;
80123;SDS011;69433;48.642;9.142;2024-02-16T02:05:47;39.83;;;25.45;;
80123;SDS011;69433;48.642;9.142;2024-02-16T02:08:13;37.72;;;23.77;;
80123;SDS011;69433;48.642;9.142;2024-02-16T02:10:40;37.55;;;24.27;;
80123;SDS011;69433;48.642;9.142;2024-02-16T02:13:05;38.05;;;24.10;;
80123;SDS011;69433;48.642;9.142;2024-02-16T02:15:38;36.05;;;24.35;;
80123;SDS011;69433;48.642;9.142;2024-02-16T02:18:12;35.95;;;24.35;;
80123;SDS011;69433;48.642;9.142;2024-02-16T02:20:43;36.53;;;23.55;;
80123;SDS011;69433;48.642;9.142;2024-02-16T02:23:15;34.65;;;22.92;;
80123;SDS011;69433;48.642;9.142;2024-02-16T02:25:40;35.25;;;23.92;;
80123;SDS011;69433;48.642;9.142;2024-02-16T02:28:13;36.88;;;23.75;;
80123;SDS011;69433;48.642;9.142;2024-02-16T02:30:40;36.42;;;23.00;;
80123;SDS011;69433;48.642;9.142;2024-02-16T02:33:05;33.03;;;22.25;;
80123;SDS011;69433;48.642;9.142;2024-02-16T02:35:30;33.50;;;23.33;;
80123;SDS011;69433;48.642;9.142;2024-02-16T02:37:56;32.50;;;22.15;;
80123;SDS011;69433;48.642;9.142;2024-02-16T02:40:24;33.42;;;21.65;;
80123;SDS011;69433;48.642;9.142;2024-02-16T02:42:57;35.35;;;23.10;;
80123;SDS011;69433;48.642;9.142;2024-02-16T02:45:23;34.42;;;22.42;;
80123;SDS011;69433;48.642;9.142;2024-02-16T02:47:51;33.03;;;22.25;;
80123;SDS011;69433;48.642;9.142;2024-02-16T02:50:16;32.72;;;21.58;;
80123;SDS011;69433;48.642;9.142;2024-02-16T02:52:44;32.95;;;21.98;;
80123;SDS011;69433;48.642;9.142;2024-02-16T02:55:12;30.58;;;21.60;;
80123;SDS011;69433;48.642;9.142;2024-02-16T02:57:38;33.13;;;22.17;;
80123;SDS011;69433;48.642;9.142;2024-02-16T03:00:07;33.30;;;21.63;;
80123;SDS011;69433;48.642;9.142;2024-02-16T03:02:37;33.63;;;21.30;;
80123;SDS011;69433;48.642;9.142;2024-02-16T03:05:04;31.95;;;20.65;;
80123;SDS011;69433;48.642;9.142;2024-02-16T03:10:06;30.88;;;20.25;;
80123;SDS011;69433;48.642;9.142;2024-02-16T03:12:41;30.23;;;20.27;;
80123;SDS011;69433;48.642;9.142;2024-02-16T03:15:07;28.98;;;19.65;;
80123;SDS011;69433;48.642;9.142;2024-02-16T03:17:33;31.05;;;20.85;;
80123;SDS011;69433;48.642;9.142;2024-02-16T03:19:58;29.65;;;19.98;;
80123;SDS011;69433;48.642;9.142;2024-02-16T03:22:25;30.15;;;19.38;;
80123;SDS011;69433;48.642;9.142;2024-02-16T03:24:57;30.05;;;19.88;;
80123;SDS011;69433;48.642;9.142;2024-02-16T03:27:27;31.65;;;20.67;;
80123;SDS011;69433;48.642;9.142;2024-02-16T03:29:52;27.85;;;19.73;;
80123;SDS011;69433;48.642;9.142;2024-02-16T03:32:18;29.02;;;19.48;;
80123;SDS011;69433;48.642;9.142;2024-02-16T03:34:43;29.23;;;19.08;;
80123;SDS011;69433;48.642;9.142;2024-02-16T03:37:17;29.73;;;19.73;;
80123;SDS011;69433;48.642;9.142;2024-02-16T03:39:44;28.55;;;18.60;;
80123;SDS011;69433;48.642;9.142;2024-02-16T03:42:10;29.35;;;19.67;;
80123;SDS011;69433;48.642;9.142;2024-02-16T03:44:35;26.50;;;18.23;;
80123;SDS011;69433;48.642;9.142;2024-02-16T03:47:00;29.70;;;18.90;;
80123;SDS011;69433;48.642;9.142;2024-02-16T03:49:26;29.67;;;19.13;;
80123;SDS011;69433;48.642;9.142;2024-02-16T03:51:54;28.20;;;19.40;;
80123;SDS011;69433;48.642;9.142;2024-02-16T03:54:31;27.17;;;18.48;;
80123;SDS011;69433;48.642;9.142;2024-02-16T03:56:57;27.77;;;18.88;;
80123;SDS011;69433;48.642;9.142;2024-02-16T03:59:23;22.40;;;16.00;;
80123;SDS011;69433;48.642;9.142;2024-02-16T04:01:51;23.60;;;15.32;;
80123;SDS011;69433;48.642;9.142;2024-02-16T04:06:46;21.67;;;13.40;;
80123;SDS011;69433;48.642;9.142;2024-02-16T04:09:16;21.63;;;14.15;;
80123;SDS011;69433;48.642;9.142;2024-02-16T04:11:46;19.73;;;12.52;;
80123;SDS011;69433;48.642;9.142;2024-02-16T04:14:18;18.92;;;13.05;;
80123;SDS011;69433;48.642;9.142;2024-02-16T04:16:45;16.95;;;11.57;;
80123;SDS011;69433;48.642;9.142;2024-02-16T04:19:11;16.42;;;11.75;;
80123;SDS011;69433;48.642;9.142;2024-02-16T04:21:37;20.92;;;12.77;;
80123;SDS011;69433;48.642;9.142;2024-02-16T04:24:13;16.23;;;11.20;;
80123;SDS011;69433;48.642;9.142;2024-02-16T04:26:39;17.77;;;11.80;;
80123;SDS011;69433;48.642;9.142;2024-02-16T04:29:13;19.20;;;12.35;;
80123;SDS011;69433;48.642;9.142;2024-02-16T04:31:41;17.92;;;12.02;;
80123;SDS011;69433;48.642;9.142;2024-02-16T04:34:07;18.08;;;11.52;;
80123;SDS011;69433;48.642;9.142;2024-02-16T04:39:03;17.08;;;11.15;;
80123;SDS011;69433;48.642;9.142;2024-02-16T04:41:28;16.23;;;11.02;;
80123;SDS011;69433;48.642;9.142;2024-02-16T04:44:11;16.75;;;11.18;;
80123;SDS011;69433;48.642;9.142;2024-02-16T04:46:39;19.40;;;11.55;;
80123;SDS011;69433;48.642;9.142;2024-02-16T04:49:04;15.13;;;10.55;;
80123;SDS011;69433;48.642;9.142;2024-02-16T04:51:29;17.77;;;11.65;;
80123;SDS011;69433;48.642;9.142;2024-02-16T04:53:55;17.98;;;11.52;;
80123;SDS011;69433;48.642;9.142;2024-02-16T04:56:21;16.00;;;10.65;;
80123;SDS011;69433;48.642;9.142;2024-02-16T04:58:48;15.88;;;11.35;;
80123;SDS011;69433;48.642;9.142;2024-02-16T05:01:14;16.08;;;11.25;;
80123;SDS011;69433;48.642;9.142;2024-02-16T05:03:52;16.10;;;10.85;;
80123;SDS011;69433;48.642;9.142;2024-02-16T05:06:18;16.98;;;10.20;;
80123;SDS011;69433;48.642;9.142;2024-02-16T05:08:56;15.32;;;10.52;;
80123;SDS011;69433;48.642;9.142;2024-02-16T05:11:22;15.93;;;10.35;;
80123;SDS011;69433;48.642;9.142;2024-02-16T05:13:51;14.48;;;10.23;;
80123;SDS011;69433;48.642;9.142;2024-02-16T05:16:25;14.48;;;10.15;;
80123;SDS011;69433;48.642;9.142;2024-02-16T05:19:07;15.48;;;9.98;;
80123;SDS011;69433;48.642;9.142;2024-02-16T05:21:49;14.48;;;9.25;;
80123;SDS011;69433;48.642;9.142;2024-02-16T05:24:20;15.27;;;9.70;;
80123;SDS011;69433;48.642;9.142;2024-02-16T05:26:55;17.48;;;9.50;;
80123;SDS011;69433;48.642;9.142;2024-02-16T05:29:20;16.55;;;9.40;;
80123;SDS011;69433;48.642;9.142;2024-02-16T05:31:46;13.30;;;9.43;;
80123;SDS011;69433;48.642;9.142;2024-02-16T05:34:11;17.02;;;9.63;;
80123;SDS011;69433;48.642;9.142;2024-02-16T05:36:38;14.73;;;9.32;;
80123;SDS011;69433;48.642;9.142;2024-02-16T05:39:11;13.13;;;8.70;;
80123;SDS011;69433;48.642;9.142;2024-02-16T05:41:47;14.70;;;9.40;;
80123;SDS011;69433;48.642;9.142;2024-02-16T05:44:22;13.57;;;9.32;;
80123;SDS011;69433;48.642;9.142;2024-02-16T05:52:51;12.40;;;8.63;;
80123;SDS011;69433;48.642;9.142;2024-02-16T05:55:16;16.10;;;8.80;;
80123;SDS011;69433;48.642;9.142;2024-02-16T05:57:43;13.98;;;9.10;;
80123;SDS011;69433;48.642;9.142;2024-02-16T06:00:10;14.27;;;8.80;;
80123;SDS011;69433;48.642;9.142;2024-02-16T06:02:38;14.65;;;8.80;;
80123;SDS011;69433;48.642;9.142;2024-02-16T06:05:17;13.73;;;8.75;;
80123;SDS011;69433;48.642;9.142;2024-02-16T06:07:44;11.73;;;8.02;;
80123;SDS011;69433;48.642;9.142;2024-02-16T06:10:09;13.25;;;8.73;;
80123;SDS011;69433;48.642;9.142;2024-02-16T06:12:47;12.50;;;8.90;;
80123;SDS011;69433;48.642;9.142;2024-02-16T06:18:18;14.82;;;9.07;;
80123;SDS011;69433;48.642;9.142;2024-02-16T06:20:55;13.27;;;8.70;;
80123;SDS011;69433;48.642;9.142;2024-02-16T06:23:25;13.15;;;8.57;;
80123;SDS011;69433;48.642;9.142;2024-02-16T06:28:34;11.80;;;7.93;;
80123;SDS011;69433;48.642;9.142;2024-02-16T06:31:04;11.10;;;7.60;;
80123;SDS011;69433;48.642;9.142;2024-02-16T06:33:29;13.73;;;7.72;;
80123;SDS011;69433;48.642;9.142;2024-02-16T06:35:55;12.98;;;7.55;;
80123;SDS011;69433;48.642;9.142;2024-02-16T06:43:58;11.70;;;8.02;;
80123;SDS011;69433;48.642;9.142;2024-02-16T06:46:32;13.35;;;7.57;;
80123;SDS011;69433;48.642;9.142;2024-02-16T06:54:30;11.48;;;6.97;;
80123;SDS011;69433;48.642;9.142;2024-02-16T06:59:50;10.30;;;7.10;;
80123;SDS011;69433;48.642;9.142;2024-02-16T07:02:17;9.48;;;6.88;;
80123;SDS011;69433;48.642;9.142;2024-02-16T07:04:43;10.90;;;7.13;;
80123;SDS011;69433;48.642;9.142;2024-02-16T07:09:53;11.88;;;7.95;;
80123;SDS011;69433;48.642;9.142;2024-02-16T07:17:47;12.07;;;7.45;;
80123;SDS011;69433;48.642;9.142;2024-02-16T07:20:19;10.50;;;7.25;;
80123;SDS011;69433;48.642;9.142;2024-02-16T07:22:52;10.02;;;6.90;;
80123;SDS011;69433;48.642;9.142;2024-02-16T07:25:17;12.07;;;7.22;;
80123;SDS011;69433;48.642;9.142;2024-02-16T07:33:22;10.95;;;7.43;;
80123;SDS011;69433;48.642;9.142;2024-02-16T07:35:49;10.50;;;7.85;;
80123;SDS011;69433;48.642;9.142;2024-02-16T07:38:16;10.70;;;6.70;;
80123;SDS011;69433;48.642;9.142;2024-02-16T07:40:49;16.33;;;7.93;;
80123;SDS011;69433;48.642;9.142;2024-02-16T07:43:15;16.75;;;6.70;;
80123;SDS011;69433;48.642;9.142;2024-02-16T07:45:41;21.45;;;7.65;;
80123;SDS011;69433;48.642;9.142;2024-02-16T07:48:06;12.75;;;7.00;;
80123;SDS011;69433;48.642;9.142;2024-02-16T07:53:08;12.27;;;7.35;;
80123;SDS011;69433;48.642;9.142;2024-02-16T07:58:19;13.10;;;7.53;;
80123;SDS011;69433;48.642;9.142;2024-02-16T08:00:44;13.15;;;7.85;;
80123;SDS011;69433;48.642;9.142;2024-02-16T08:03:10;14.40;;;8.23;;
80123;SDS011;69433;48.642;9.142;2024-02-16T08:05:35;12.65;;;7.50;;
80123;SDS011;69433;48.642;9.142;2024-02-16T08:08:00;11.30;;;7.53;;
80123;SDS011;69433;48.642;9.142;2024-02-16T08:10:26;13.38;;;6.70;;
80123;SDS011;69433;48.642;9.142;2024-02-16T08:12:58;10.25;;;6.15;;
80123;SDS011;69433;48.642;9.142;2024-02-16T08:15:23;12.43;;;7.20;;
80123;SDS011;69433;48.642;9.142;2024-02-16T08:17:51;13.38;;;7.35;;
80123;SDS011;69433;48.642;9.142;2024-02-16T08:20:17;11.93;;;6.90;;
80123;SDS011;69433;48.642;9.142;2024-02-16T08:22:42;10.82;;;7.30;;
80123;SDS011;69433;48.642;9.142;2024-02-16T08:25:08;13.20;;;6.53;;
80123;SDS011;69433;48.642;9.142;2024-02-16T08:27:48;13.38;;;7.32;;
80123;SDS011;69433;48.642;9.142;2024-02-16T08:30:20;12.18;;;6.57;;
80123;SDS011;69433;48.642;9.142;2024-02-16T08:32:46;11.43;;;6.43;;
80123;SDS011;69433;48.642;9.142;2024-02-16T08:35:12;10.50;;;6.65;;
80123;SDS011;69433;48.642;9.142;2024-02-16T08:37:53;15.82;;;7.20;;
80123;SDS011;69433;48.642;9.142;2024-02-16T08:40:18;12.40;;;6.60;;
80123;SDS011;69433;48.642;9.142;2024-02-16T08:42:44;11.70;;;6.95;;
80123;SDS011;69433;48.642;9.142;2024-02-16T08:47:50;10.07;;;6.57;;
80123;SDS011;69433;48.642;9.142;2024-02-16T08:50:15;10.82;;;6.50;;
80123;SDS011;69433;48.642;9.142;2024-02-16T08:52:41;13.77;;;7.80;;
80123;SDS011;69433;48.642;9.142;2024-02-16T08:55:07;11.40;;;6.65;;
80123;SDS011;69433;48.642;9.142;2024-02-16T08:57:40;9.18;;;6.25;;
80123;SDS011;69433;48.642;9.142;2024-02-16T09:00:06;8.43;;;6.18;;
80123;SDS011;69433;48.642;9.142;2024-02-16T09:02:32;9.85;;;6.45;;
80123;SDS011;69433;48.642;9.142;2024-02-16T09:05:05;8.00;;;5.80;;
80123;SDS011;69433;48.642;9.142;2024-02-16T09:07:38;10.48;;;6.45;;
80123;SDS011;69433;48.642;9.142;2024-02-16T09:10:11;9.63;;;6.43;;
80123;SDS011;69433;48.642;9.142;2024-02-16T09:12:37;9.05;;;6.55;;
80123;SDS011;69433;48.642;9.142;2024-02-16T09:17:56;9.30;;;6.35;;
80123;SDS011;69433;48.642;9.142;2024-02-16T09:20:23;10.13;;;6.38;;
80123;SDS011;69433;48.642;9.142;2024-02-16T09:22:48;9.10;;;6.40;;
80123;SDS011;69433;48.642;9.142;2024-02-16T09:25:14;9.52;;;6.65;;
80123;SDS011;69433;48.642;9.142;2024-02-16T09:27:53;9.35;;;6.15;;
80123;SDS011;69433;48.642;9.142;2024-02-16T09:30:19;9.02;;;5.80;;
80123;SDS011;69433;48.642;9.142;2024-02-16T09:32:46;10.20;;;5.95;;
80123;SDS011;69433;48.642;9.142;2024-02-16T09:38:00;8.65;;;5.85;;
80123;SDS011;69433;48.642;9.142;2024-02-16T09:52:23;9.35;;;6.00;;
80123;SDS011;69433;48.642;9.142;2024-02-16T09:57:32;9.70;;;6.13;;
80123;SDS011;69433;48.642;9.142;2024-02-16T10:02:45;9.40;;;6.13;;
80123;SDS011;69433;48.642;9.142;2024-02-16T10:05:26;8.52;;;5.68;;
80123;SDS011;69433;48.642;9.142;2024-02-16T10:07:52;9.55;;;6.00;;
80123;SDS011;69433;48.642;9.142;2024-02-16T10:10:25;8.70;;;5.40;;
80123;SDS011;69433;48.642;9.142;2024-02-16T10:21:50;8.32;;;5.93;;
80123;SDS011;69433;48.642;9.142;2024-02-16T10:24:20;7.75;;;5.82;;
80123;SDS011;69433;48.642;9.142;2024-02-16T10:26:46;10.65;;;5.65;;
80123;SDS011;69433;48.642;9.142;2024-02-16T10:29:17;7.97;;;5.80;;
80123;SDS011;69433;48.642;9.142;2024-02-16T10:31:45;8.07;;;5.70;;
80123;SDS011;69433;48.642;9.142;2024-02-16T10:34:15;9.15;;;5.82;;
80123;SDS011;69433;48.642;9.142;2024-02-16T10:36:45;9.38;;;6.20;;
80123;SDS011;69433;48.642;9.142;2024-02-16T10:39:11;8.60;;;5.30;;
80123;SDS011;69433;48.642;9.142;2024-02-16T10:41:44;7.50;;;5.32;;
80123;SDS011;69433;48.642;9.142;2024-02-16T10:44:24;7.82;;;5.70;;
80123;SDS011;69433;48.642;9.142;2024-02-16T10:46:52;7.68;;;5.45;;
80123;SDS011;69433;48.642;9.142;2024-02-16T10:52:09;7.93;;;5.45;;
80123;SDS011;69433;48.642;9.142;2024-02-16T10:54:37;8.10;;;5.60;;
80123;SDS011;69433;48.642;9.142;2024-02-16T10:57:11;8.55;;;5.65;;
80123;SDS011;69433;48.642;9.142;2024-02-16T10:59:46;6.90;;;5.15;;
80123;SDS011;69433;48.642;9.142;2024-02-16T11:02:13;8.07;;;5.32;;
80123;SDS011;69433;48.642;9.142;2024-02-16T11:04:39;8.82;;;5.63;;
80123;SDS011;69433;48.642;9.142;2024-02-16T11:07:11;8.38;;;5.60;;
80123;SDS011;69433;48.642;9.142;2024-02-16T11:09:43;8.20;;;5.75;;
80123;SDS011;69433;48.642;9.142;2024-02-16T11:12:14;8.45;;;5.47;;
80123;SDS011;69433;48.642;9.142;2024-02-16T11:14:41;7.35;;;5.05;;
80123;SDS011;69433;48.642;9.142;2024-02-16T11:17:23;7.53;;;5.40;;
80123;SDS011;69433;48.642;9.142;2024-02-16T11:19:54;7.22;;;4.97;;
80123;SDS011;69433;48.642;9.142;2024-02-16T11:22:31;8.05;;;4.88;;
80123;SDS011;69433;48.642;9.142;2024-02-16T11:25:05;7.10;;;5.05;;
80123;SDS011;69433;48.642;9.142;2024-02-16T11:27:31;6.88;;;5.15;;
80123;SDS011;69433;48.642;9.142;2024-02-16T11:30:05;7.43;;;5.28;;
80123;SDS011;69433;48.642;9.142;2024-02-16T11:32:32;7.15;;;4.88;;
80123;SDS011;69433;48.642;9.142;2024-02-16T11:35:04;7.25;;;5.22;;
80123;SDS011;69433;48.642;9.142;2024-02-16T11:37:31;8.10;;;5.53;;
80123;SDS011;69433;48.642;9.142;2024-02-16T11:40:11;6.55;;;4.90;;
80123;SDS011;69433;48.642;9.142;2024-02-16T11:45:23;7.30;;;5.10;;
80123;SDS011;69433;48.642;9.142;2024-02-16T11:47:48;7.97;;;5.35;;
80123;SDS011;69433;48.642;9.142;2024-02-16T11:50:15;7.13;;;5.05;;
80123;SDS011;69433;48.642;9.142;2024-02-16T11:52:58;7.57;;;4.93;;
80123;SDS011;69433;48.642;9.142;2024-02-16T11:55:31;7.45;;;4.75;;
80123;SDS011;69433;48.642;9.142;2024-02-16T11:58:05;7.78;;;4.95;;
80123;SDS011;69433;48.642;9.142;2024-02-16T12:00:31;7.18;;;5.10;;
80123;SDS011;69433;48.642;9.142;2024-02-16T12:05:59;7.10;;;4.93;;
80123;SDS011;69433;48.642;9.142;2024-02-16T12:08:43;8.00;;;5.38;;
80123;SDS011;69433;48.642;9.142;2024-02-16T12:11:09;7.38;;;5.20;;
80123;SDS011;69433;48.642;9.142;2024-02-16T12:13:34;7.28;;;4.78;;
80123;SDS011;69433;48.642;9.142;2024-02-16T12:16:18;6.75;;;4.72;;
80123;SDS011;69433;48.642;9.142;2024-02-16T12:21:43;6.55;;;4.82;;
80123;SDS011;69433;48.642;9.142;2024-02-16T12:24:10;8.35;;;4.90;;
80123;SDS011;69433;48.642;9.142;2024-02-16T12:26:52;6.93;;;5.13;;
80123;SDS011;69433;48.642;9.142;2024-02-16T12:29:24;7.25;;;4.95;;
80123;SDS011;69433;48.642;9.142;2024-02-16T12:31:49;6.90;;;4.72;;
80123;SDS011;69433;48.642;9.142;2024-02-16T12:34:16;6.55;;;4.50;;
80123;SDS011;69433;48.642;9.142;2024-02-16T12:36:57;6.45;;;4.40;;
80123;SDS011;69433;48.642;9.142;2024-02-16T12:39:27;5.82;;;4.15;;
80123;SDS011;69433;48.642;9.142;2024-02-16T12:42:00;6.80;;;3.70;;
80123;SDS011;69433;48.642;9.142;2024-02-16T12:44:36;5.65;;;3.38;;
80123;SDS011;69433;48.642;9.142;2024-02-16T12:47:01;5.88;;;3.47;;
80123;SDS011;69433;48.642;9.142;2024-02-16T12:49:33;5.50;;;3.65;;
80123;SDS011;69433;48.642;9.142;2024-02-16T12:52:00;9.00;;;3.42;;
80123;SDS011;69433;48.642;9.142;2024-02-16T12:54:26;5.05;;;3.30;;
80123;SDS011;69433;48.642;9.142;2024-02-16T12:59:29;6.63;;;3.50;;
80123;SDS011;69433;48.642;9.142;2024-02-16T13:01:56;4.53;;;3.20;;
80123;SDS011;69433;48.642;9.142;2024-02-16T13:04:21;5.93;;;3.28;;
80123;SDS011;69433;48.642;9.142;2024-02-16T13:06:47;6.70;;;3.30;;
80123;SDS011;69433;48.642;9.142;2024-02-16T13:09:13;7.13;;;3.08;;
80123;SDS011;69433;48.642;9.142;2024-02-16T13:11:55;7.32;;;2.88;;
80123;SDS011;69433;48.642;9.142;2024-02-16T13:14:24;5.97;;;3.05;;
80123;SDS011;69433;48.642;9.142;2024-02-16T13:19:22;5.22;;;2.83;;
80123;SDS011;69433;48.642;9.142;2024-02-16T13:21:48;6.13;;;2.92;;
80123;SDS011;69433;48.642;9.142;2024-02-16T13:27:15;3.85;;;2.67;;
80123;SDS011;69433;48.642;9.142;2024-02-16T13:32:47;6.07;;;3.15;;
80123;SDS011;69433;48.642;9.142;2024-02-16T13:35:26;9.80;;;2.95;;
80123;SDS011;69433;48.642;9.142;2024-02-16T13:37:58;4.80;;;2.85;;
80123;SDS011;69433;48.642;9.142;2024-02-16T13:42:51;6.90;;;3.00;;
80123;SDS011;69433;48.642;9.142;2024-02-16T13:45:17;5.15;;;3.08;;
80123;SDS011;69433;48.642;9.142;2024-02-16T13:47:42;5.07;;;2.78;;
80123;SDS011;69433;48.642;9.142;2024-02-16T13:52:38;5.45;;;3.30;;
80123;SDS011;69433;48.642;9.142;2024-02-16T13:55:09;4.22;;;2.67;;
80123;SDS011;69433;48.642;9.142;2024-02-16T13:57:36;5.22;;;2.70;;
80123;SDS011;69433;48.642;9.142;2024-02-16T14:00:03;4.32;;;2.80;;
80123;SDS011;69433;48.642;9.142;2024-02-16T14:02:28;4.93;;;3.35;;
80123;SDS011;69433;48.642;9.142;2024-02-16T14:05:00;6.13;;;3.67;;
80123;SDS011;69433;48.642;9.142;2024-02-16T14:07:25;17.27;;;11.38;;
80123;SDS011;69433;48.642;9.142;2024-02-16T14:09:56;38.95;;;25.55;;
80123;SDS011;69433;48.642;9.142;2024-02-16T14:12:22;76.95;;;49.83;;
80123;SDS011;69433;48.642;9.142;2024-02-16T14:14:47;88.13;;;56.28;;
80123;SDS011;69433;48.642;9.142;2024-02-16T14:17:13;74.00;;;47.83;;
80123;SDS011;69433;48.642;9.142;2024-02-16T14:19:40;73.13;;;46.92;;
80123;SDS011;69433;48.642;9.142;2024-02-16T14:22:14;59.90;;;40.28;;
80123;SDS011;69433;48.642;9.142;2024-02-16T14:24:40;63.60;;;41.15;;
80123;SDS011;69433;48.642;9.142;2024-02-16T14:27:05;61.28;;;40.42;;
80123;SDS011;69433;48.642;9.142;2024-02-16T14:29:30;56.22;;;37.15;;
80123;SDS011;69433;48.642;9.142;2024-02-16T14:31:59;53.70;;;35.65;;
80123;SDS011;69433;48.642;9.142;2024-02-16T14:37:18;46.97;;;30.48;;
80123;SDS011;69433;48.642;9.142;2024-02-16T14:39:45;39.85;;;27.15;;
80123;SDS011;69433;48.642;9.142;2024-02-16T14:42:12;39.10;;;25.92;;
80123;SDS011;69433;48.642;9.142;2024-02-16T14:49:42;29.48;;;18.92;;
80123;SDS011;69433;48.642;9.142;2024-02-16T14:52:14;28.63;;;18.08;;
80123;SDS011;69433;48.642;9.142;2024-02-16T14:54:48;23.35;;;15.88;;
80123;SDS011;69433;48.642;9.142;2024-02-16T14:57:20;23.90;;;15.32;;
80123;SDS011;69433;48.642;9.142;2024-02-16T14:59:49;18.63;;;12.63;;
80123;SDS011;69433;48.642;9.142;2024-02-16T15:02:17;19.08;;;10.85;;
80123;SDS011;69433;48.642;9.142;2024-02-16T15:04:48;17.23;;;11.05;;
80123;SDS011;69433;48.642;9.142;2024-02-16T15:07:14;18.92;;;11.18;;
80123;SDS011;69433;48.642;9.142;2024-02-16T15:09:49;17.15;;;9.75;;
80123;SDS011;69433;48.642;9.142;2024-02-16T15:14:47;12.05;;;7.30;;
80123;SDS011;69433;48.642;9.142;2024-02-16T15:17:20;12.20;;;7.30;;
80123;SDS011;69433;48.642;9.142;2024-02-16T15:19:48;12.05;;;6.93;;
80123;SDS011;69433;48.642;9.142;2024-02-16T15:22:26;12.90;;;6.45;;
80123;SDS011;69433;48.642;9.142;2024-02-16T15:24:54;11.88;;;5.82;;
80123;SDS011;69433;48.642;9.142;2024-02-16T15:27:21;15.95;;;7.32;;
80123;SDS011;69433;48.642;9.142;2024-02-16T15:29:49;13.65;;;6.93;;
80123;SDS011;69433;48.642;9.142;2024-02-16T15:32:14;12.35;;;6.40;;
80123;SDS011;69433;48.642;9.142;2024-02-16T15:34:40;11.65;;;7.10;;
80123;SDS011;69433;48.642;9.142;2024-02-16T15:37:13;11.85;;;6.78;;
80123;SDS011;69433;48.642;9.142;2024-02-16T15:39:44;14.20;;;6.80;;
80123;SDS011;69433;48.642;9.142;2024-02-16T15:42:10;11.45;;;6.40;;
80123;SDS011;69433;48.642;9.142;2024-02-16T15:44:37;11.40;;;6.22;;
80123;SDS011;69433;48.642;9.142;2024-02-16T15:47:10;10.52;;;5.88;;
80123;SDS011;69433;48.642;9.142;2024-02-16T15:49:36;10.15;;;5.72;;
80123;SDS011;69433;48.642;9.142;2024-02-16T15:52:02;10.30;;;6.25;;
80123;SDS011;69433;48.642;9.142;2024-02-16T15:54:29;21.25;;;6.07;;
80123;SDS011;69433;48.642;9.142;2024-02-16T15:56:54;10.27;;;6.03;;
80123;SDS011;69433;48.642;9.142;2024-02-16T16:01:53;9.93;;;6.03;;
80123;SDS011;69433;48.642;9.142;2024-02-16T16:04:26;12.00;;;6.50;;
80123;SDS011;69433;48.642;9.142;2024-02-16T16:06:52;13.88;;;6.45;;
80123;SDS011;69433;48.642;9.142;2024-02-16T16:09:17;11.80;;;5.97;;
80123;SDS011;69433;48.642;9.142;2024-02-16T16:11:44;10.18;;;5.78;;
80123;SDS011;69433;48.642;9.142;2024-02-16T16:14:12;10.98;;;5.75;;
80123;SDS011;69433;48.642;9.142;2024-02-16T16:16:38;11.27;;;6.13;;
80123;SDS011;69433;48.642;9.142;2024-02-16T16:19:05;10.43;;;5.72;;
80123;SDS011;69433;48.642;9.142;2024-02-16T16:21:40;11.45;;;5.85;;
80123;SDS011;69433;48.642;9.142;2024-02-16T16:24:07;9.32;;;5.43;;
80123;SDS011;69433;48.642;9.142;2024-02-16T16:26:41;9.52;;;5.63;;
80123;SDS011;69433;48.642;9.142;2024-02-16T16:29:09;12.25;;;5.97;;
80123;SDS011;69433;48.642;9.142;2024-02-16T16:31:34;10.18;;;6.10;;
80123;SDS011;69433;48.642;9.142;2024-02-16T16:34:00;9.52;;;5.90;;
80123;SDS011;69433;48.642;9.142;2024-02-16T16:36:32;9.45;;;5.70;;
80123;SDS011;69433;48.642;9.142;2024-02-16T16:38:58;8.10;;;4.85;;
80123;SDS011;69433;48.642;9.142;2024-02-16T16:41:30;8.07;;;5.63;;
80123;SDS011;69433;48.642;9.142;2024-02-16T16:43:57;7.82;;;5.25;;
80123;SDS011;69433;48.642;9.142;2024-02-16T16:46:36;9.88;;;5.25;;
80123;SDS011;69433;48.642;9.142;2024-02-16T16:49:03;10.93;;;5.90;;
80123;SDS011;69433;48.642;9.142;2024-02-16T16:53:58;8.30;;;5.60;;
80123;SDS011;69433;48.642;9.142;2024-02-16T16:56:24;8.98;;;5.43;;